Time;durP1;ratioP1;P1;durP2;ratioP2;P2;SDS_P1;SDS_P2;PMS_P1;PMS_P2;Temp;Humidity;BMP_temperature;BMP_pressure;BME280_temperature;BME280_humidity;BME280_pressure;Samples;Min_cycle;Max_cycle;Signal;HPM_P1;HPM_P2
2021/06/28 00:00:30;;;;;;;7.70;6.18;;;19.80;99.90;;;;;;5042733;28;20033;-71
2021/06/28 00:02:58;;;;;;;7.75;5.68;;;19.80;99.90;;;;;;5043144;28;20455;-71
2021/06/28 00:05:26;;;;;;;6.78;5.85;;;19.80;99.90;;;;;;5044725;28;20025;-71
2021/06/28 00:07:56;;;;;;;8.75;6.40;;;19.70;99.90;;;;;;5043886;28;20425;-71
2021/06/28 00:10:28;;;;;;;7.05;6.20;;;19.70;99.90;;;;;;5031834;28;20430;-71
2021/06/28 00:12:57;;;;;;;8.32;5.75;;;19.70;99.90;;;;;;5041401;28;20100;-71
2021/06/28 00:15:37;;;;;;;6.95;5.97;;;19.60;99.90;;;;;;5039635;28;20463;-71
2021/06/28 00:18:03;;;;;;;6.70;5.78;;;19.60;99.90;;;;;;5039628;28;20531;-71
2021/06/28 00:20:28;;;;;;;7.80;6.07;;;19.60;99.90;;;;;;5043525;28;20041;-71
2021/06/28 00:22:56;;;;;;;7.05;5.95;;;19.60;99.90;;;;;;5039504;28;20029;-71
2021/06/28 00:25:22;;;;;;;7.35;6.05;;;19.50;99.90;;;;;;5037652;28;20045;-71
2021/06/28 00:27:48;;;;;;;7.38;5.78;;;19.50;99.90;;;;;;5040191;28;20020;-71
2021/06/28 00:30:16;;;;;;;9.25;6.03;;;19.50;99.90;;;;;;5039405;28;20028;-71
2021/06/28 00:32:44;;;;;;;7.30;5.93;;;19.50;99.90;;;;;;5037342;28;20024;-71
2021/06/28 00:35:13;;;;;;;6.50;5.43;;;19.50;99.90;;;;;;5039526;28;20061;-71
2021/06/28 00:37:38;;;;;;;6.53;5.78;;;19.50;99.90;;;;;;5041399;28;20442;-70
2021/06/28 00:40:07;;;;;;;7.75;6.00;;;19.40;99.90;;;;;;5040144;28;20053;-72
2021/06/28 00:42:33;;;;;;;6.95;5.82;;;19.40;99.90;;;;;;5031485;28;20032;-72
2021/06/28 00:44:59;;;;;;;8.20;5.80;;;19.40;99.90;;;;;;5039494;28;20394;-70
2021/06/28 00:47:24;;;;;;;7.07;6.05;;;19.40;99.90;;;;;;5038204;28;20684;-70
2021/06/28 00:49:50;;;;;;;8.10;6.28;;;19.40;99.90;;;;;;5042367;28;20907;-70
2021/06/28 00:52:20;;;;;;;7.55;5.82;;;19.30;99.90;;;;;;5042841;28;20039;-70
2021/06/28 00:54:50;;;;;;;7.43;5.95;;;19.30;99.90;;;;;;5040203;28;20052;-70
2021/06/28 00:57:21;;;;;;;8.38;5.78;;;19.30;99.90;;;;;;5047213;28;20021;-70
2021/06/28 00:59:46;;;;;;;6.88;6.00;;;19.30;99.90;;;;;;5039858;28;20708;-71
2021/06/28 01:02:12;;;;;;;7.95;5.93;;;19.20;99.90;;;;;;5034403;28;20025;-70
2021/06/28 01:04:40;;;;;;;7.63;5.93;;;19.20;99.90;;;;;;5034711;28;20076;-70
2021/06/28 01:07:08;;;;;;;6.45;5.65;;;19.20;99.90;;;;;;5034169;28;20041;-70
2021/06/28 01:09:33;;;;;;;8.27;6.40;;;19.20;99.90;;;;;;5037872;28;20462;-70
2021/06/28 01:11:59;;;;;;;8.55;6.15;;;19.10;99.90;;;;;;5039599;28;20071;-70
2021/06/28 01:14:24;;;;;;;7.25;5.90;;;19.20;99.90;;;;;;5042782;28;20025;-70
2021/06/28 01:16:50;;;;;;;7.38;5.85;;;19.10;99.90;;;;;;5041351;28;20068;-70
2021/06/28 01:19:18;;;;;;;6.90;5.65;;;19.10;99.90;;;;;;5025068;28;20511;-70
2021/06/28 01:21:48;;;;;;;7.35;6.10;;;19.10;99.90;;;;;;5014697;28;20028;-70
2021/06/28 01:24:16;;;;;;;7.50;6.15;;;19.10;99.90;;;;;;5029126;28;20627;-70
2021/06/28 01:26:44;;;;;;;7.32;6.50;;;19.00;99.90;;;;;;5030003;28;20590;-70
2021/06/28 01:29:10;;;;;;;7.28;6.05;;;19.00;99.90;;;;;;5041637;28;20032;-70
2021/06/28 01:31:35;;;;;;;7.28;6.20;;;19.00;99.90;;;;;;5042547;28;20098;-70
2021/06/28 01:34:03;;;;;;;8.25;6.28;;;19.00;99.90;;;;;;5044549;28;20503;-71
2021/06/28 01:36:31;;;;;;;8.15;6.47;;;18.90;99.90;;;;;;5044006;28;20090;-70
2021/06/28 01:38:57;;;;;;;7.18;6.13;;;18.90;99.90;;;;;;5043012;28;20393;-70
2021/06/28 01:41:27;;;;;;;8.18;6.38;;;18.90;99.90;;;;;;5040875;28;20100;-70
2021/06/28 01:43:53;;;;;;;8.02;6.18;;;18.90;99.90;;;;;;5041689;28;20363;-70
2021/06/28 01:46:18;;;;;;;8.00;6.20;;;18.80;99.90;;;;;;5040833;28;20037;-70
2021/06/28 01:48:44;;;;;;;8.00;5.65;;;18.80;99.90;;;;;;5041536;28;20040;-70
2021/06/28 01:51:10;;;;;;;9.55;6.68;;;18.80;99.90;;;;;;5043734;28;20387;-70
2021/06/28 01:53:41;;;;;;;8.05;6.68;;;18.70;99.90;;;;;;5037910;28;20108;-70
2021/06/28 01:56:11;;;;;;;7.45;6.30;;;18.70;99.90;;;;;;5036888;28;20478;-70
2021/06/28 01:58:44;;;;;;;9.35;6.53;;;18.70;99.90;;;;;;5045628;28;20028;-70
2021/06/28 02:01:09;;;;;;;7.43;6.10;;;18.70;99.90;;;;;;5042766;28;20370;-70
2021/06/28 02:03:37;;;;;;;9.05;6.38;;;18.70;99.90;;;;;;5043280;28;20018;-70
2021/06/28 02:06:02;;;;;;;8.35;6.25;;;18.70;99.90;;;;;;5045139;28;20559;-70
2021/06/28 02:08:29;;;;;;;9.13;6.70;;;18.70;99.90;;;;;;5039390;28;20112;-70
2021/06/28 02:10:57;;;;;;;7.03;6.25;;;18.70;99.90;;;;;;5025246;28;20032;-70
2021/06/28 02:13:24;;;;;;;8.57;6.30;;;18.60;99.90;;;;;;5038601;28;20501;-70
2021/06/28 02:15:55;;;;;;;8.35;6.75;;;18.70;99.90;;;;;;5039680;28;20029;-70
2021/06/28 02:18:24;;;;;;;7.45;6.45;;;18.60;99.90;;;;;;5039507;28;20048;-70
2021/06/28 02:20:53;;;;;;;7.75;6.40;;;18.60;99.90;;;;;;5040055;28;20031;-70
2021/06/28 02:23:21;;;;;;;7.75;6.20;;;18.60;99.90;;;;;;5037103;28;20458;-70
2021/06/28 02:26:09;;;;;;;8.68;6.82;;;18.60;99.90;;;;;;5037723;28;20045;-70
2021/06/28 02:28:39;;;;;;;10.00;6.70;;;18.60;99.90;;;;;;5037214;28;20673;-70
2021/06/28 02:31:08;;;;;;;8.93;6.80;;;18.60;99.90;;;;;;5037957;28;20083;-70
2021/06/28 02:33:34;;;;;;;7.65;6.85;;;18.50;99.90;;;;;;5036047;28;20021;-70
2021/06/28 02:36:03;;;;;;;7.90;6.70;;;18.50;99.90;;;;;;5034557;28;20032;-70
2021/06/28 02:38:29;;;;;;;7.10;6.38;;;18.50;99.90;;;;;;5037767;28;20099;-70
2021/06/28 02:40:56;;;;;;;11.55;7.07;;;18.50;99.90;;;;;;5038068;28;20069;-70
2021/06/28 02:43:24;;;;;;;9.27;6.80;;;18.60;99.90;;;;;;5022961;28;20040;-70
2021/06/28 02:45:50;;;;;;;8.35;6.47;;;18.50;99.90;;;;;;5039453;28;20640;-70
2021/06/28 02:48:16;;;;;;;8.23;7.30;;;18.60;99.90;;;;;;5033897;28;20040;-70
2021/06/28 02:50:43;;;;;;;8.50;7.05;;;18.50;99.90;;;;;;5037035;28;20037;-70
2021/06/28 02:53:09;;;;;;;10.20;6.72;;;18.60;99.90;;;;;;5036566;28;20051;-70
2021/06/28 02:55:37;;;;;;;9.13;7.07;;;18.50;99.90;;;;;;5039681;28;20033;-70
2021/06/28 02:58:05;;;;;;;8.05;6.88;;;18.50;99.90;;;;;;5059577;28;20104;-70
2021/06/28 03:00:31;;;;;;;7.40;6.45;;;18.50;99.90;;;;;;5039147;28;20083;-70
2021/06/28 03:02:59;;;;;;;8.55;6.90;;;18.50;99.90;;;;;;5031338;28;20481;-70
2021/06/28 03:05:27;;;;;;;8.38;6.65;;;18.50;99.90;;;;;;5037491;28;20029;-70
2021/06/28 03:07:53;;;;;;;8.93;6.45;;;18.50;99.90;;;;;;5052108;28;20123;-70
2021/06/28 03:10:24;;;;;;;9.05;6.80;;;18.50;99.90;;;;;;5032778;28;20064;-70
2021/06/28 03:12:49;;;;;;;8.05;6.72;;;18.50;99.90;;;;;;5040020;28;20033;-70
2021/06/28 03:15:17;;;;;;;8.68;6.82;;;18.50;99.90;;;;;;5038836;28;20036;-70
2021/06/28 03:17:42;;;;;;;7.60;6.80;;;18.50;99.90;;;;;;5040990;28;20248;-70
2021/06/28 03:20:10;;;;;;;8.02;6.38;;;18.50;99.90;;;;;;5039913;28;20506;-72
2021/06/28 03:22:39;;;;;;;9.23;7.10;;;18.50;99.90;;;;;;5057601;28;20128;-70
2021/06/28 03:25:09;;;;;;;9.30;7.10;;;18.50;99.90;;;;;;5038689;28;20583;-70
2021/06/28 03:27:38;;;;;;;8.30;6.68;;;18.50;99.90;;;;;;5034777;28;20033;-71
2021/06/28 03:30:07;;;;;;;8.70;7.15;;;18.50;99.90;;;;;;5035187;28;20025;-70
2021/06/28 03:32:32;;;;;;;9.73;7.28;;;18.50;99.90;;;;;;5038966;28;20025;-70
2021/06/28 03:34:58;;;;;;;8.13;7.22;;;18.50;99.90;;;;;;5036078;28;20086;-70
2021/06/28 03:37:28;;;;;;;8.02;6.40;;;18.50;99.90;;;;;;5038942;28;20096;-70
2021/06/28 03:39:59;;;;;;;10.20;7.43;;;18.50;99.90;;;;;;5040244;28;20025;-70
2021/06/28 03:42:27;;;;;;;8.05;7.25;;;18.50;99.90;;;;;;5040470;28;20049;-70
2021/06/28 03:44:52;;;;;;;10.45;7.22;;;18.50;99.90;;;;;;5040576;28;20025;-70
2021/06/28 03:47:23;;;;;;;8.38;7.32;;;18.50;99.90;;;;;;5040490;28;20033;-70
2021/06/28 03:49:53;;;;;;;9.00;7.63;;;18.50;99.90;;;;;;5038843;28;20034;-70
2021/06/28 03:52:21;;;;;;;8.38;7.25;;;18.50;99.90;;;;;;5041813;28;20035;-71
2021/06/28 03:54:47;;;;;;;8.65;6.97;;;18.50;99.90;;;;;;5042985;28;20030;-70
2021/06/28 03:57:14;;;;;;;8.50;7.30;;;18.50;99.90;;;;;;5038160;28;20056;-70
2021/06/28 03:59:40;;;;;;;8.50;7.10;;;18.50;99.90;;;;;;5040027;28;20032;-70
2021/06/28 04:02:08;;;;;;;7.38;6.57;;;18.60;99.90;;;;;;5039012;28;20021;-70
2021/06/28 04:04:36;;;;;;;10.27;7.25;;;18.60;99.90;;;;;;5037999;28;20020;-70
2021/06/28 04:07:02;;;;;;;8.18;6.65;;;18.60;99.90;;;;;;5036381;28;20036;-70
2021/06/28 04:09:30;;;;;;;7.90;7.10;;;18.60;99.90;;;;;;5037825;28;20036;-70
2021/06/28 04:11:57;;;;;;;8.60;7.40;;;18.60;99.90;;;;;;5037406;28;20037;-70
2021/06/28 04:14:23;;;;;;;9.63;7.35;;;18.60;99.90;;;;;;5040687;28;20033;-71
2021/06/28 04:16:49;;;;;;;8.05;7.25;;;18.60;99.90;;;;;;5042381;28;20040;-70
2021/06/28 04:19:14;;;;;;;9.70;7.43;;;18.70;99.90;;;;;;5038007;28;20037;-70
2021/06/28 04:21:40;;;;;;;7.90;7.10;;;18.70;99.90;;;;;;5039835;28;20039;-70
2021/06/28 04:24:06;;;;;;;8.23;7.43;;;18.70;99.90;;;;;;5037002;28;20584;-70
2021/06/28 04:26:37;;;;;;;9.20;7.55;;;18.60;99.90;;;;;;5039662;28;20033;-70
2021/06/28 04:29:03;;;;;;;10.05;8.00;;;18.70;99.90;;;;;;5039841;28;20049;-70
2021/06/28 04:31:33;;;;;;;8.27;6.95;;;18.70;99.90;;;;;;5025325;28;20035;-71
2021/06/28 04:33:59;;;;;;;9.25;7.55;;;18.70;99.90;;;;;;5038906;28;20403;-70
2021/06/28 04:36:24;;;;;;;8.05;6.97;;;18.70;99.90;;;;;;5038888;28;20025;-70
2021/06/28 04:38:50;;;;;;;8.25;7.13;;;18.70;99.90;;;;;;5038446;28;20033;-70
2021/06/28 04:41:16;;;;;;;10.65;7.85;;;18.80;99.90;;;;;;5036576;28;20029;-70
2021/06/28 04:43:46;;;;;;;9.55;7.32;;;18.80;99.90;;;;;;5043316;28;20034;-70
2021/06/28 04:46:14;;;;;;;7.82;7.03;;;18.80;99.90;;;;;;5042582;28;20156;-70
2021/06/28 04:48:40;;;;;;;8.35;7.32;;;18.80;99.90;;;;;;5042130;28;20039;-70
2021/06/28 04:51:08;;;;;;;7.80;7.00;;;18.80;99.90;;;;;;5040930;28;20103;-70
2021/06/28 04:53:33;;;;;;;8.25;7.40;;;18.90;99.90;;;;;;5043732;28;20029;-70
2021/06/28 04:56:04;;;;;;;9.85;7.38;;;18.90;99.90;;;;;;5041712;28;20144;-71
2021/06/28 04:58:30;;;;;;;8.90;7.93;;;19.00;99.90;;;;;;5041561;28;20035;-70
2021/06/28 05:00:56;;;;;;;8.77;7.75;;;19.00;99.90;;;;;;5039720;28;20464;-70
2021/06/28 05:03:23;;;;;;;9.20;8.30;;;19.10;99.90;;;;;;5030443;28;20131;-70
2021/06/28 05:05:51;;;;;;;10.38;8.77;;;19.10;99.90;;;;;;5045108;28;20029;-70
2021/06/28 05:08:19;;;;;;;10.38;8.95;;;19.20;99.90;;;;;;5044068;28;20028;-70
2021/06/28 05:10:47;;;;;;;10.25;8.63;;;19.20;99.90;;;;;;5042725;28;20040;-71
2021/06/28 05:13:13;;;;;;;9.40;8.20;;;19.30;99.90;;;;;;5038638;28;20037;-70
2021/06/28 05:15:41;;;;;;;10.20;9.02;;;19.30;99.90;;;;;;5042507;28;20475;-70
2021/06/28 05:18:09;;;;;;;10.55;9.52;;;19.40;99.90;;;;;;5015495;28;20142;-70
2021/06/28 05:20:35;;;;;;;11.98;10.77;;;19.40;99.90;;;;;;5047167;28;20031;-70
2021/06/28 05:23:00;;;;;;;11.10;10.00;;;19.50;99.90;;;;;;5041530;28;20237;-70
2021/06/28 05:25:26;;;;;;;11.43;10.27;;;19.60;99.90;;;;;;5040316;28;20377;-70
2021/06/28 05:27:54;;;;;;;11.98;10.75;;;19.60;99.90;;;;;;5042435;28;20033;-71
2021/06/28 05:30:20;;;;;;;10.90;8.32;;;19.70;99.90;;;;;;5042529;28;20180;-70
2021/06/28 05:32:45;;;;;;;9.85;8.25;;;19.80;99.90;;;;;;5042135;28;20105;-70
2021/06/28 05:35:13;;;;;;;10.48;9.43;;;19.80;99.90;;;;;;5038355;28;20032;-70
2021/06/28 05:37:39;;;;;;;10.07;9.07;;;19.90;99.90;;;;;;5040376;28;20036;-70
2021/06/28 05:40:06;;;;;;;9.80;8.80;;;19.90;99.90;;;;;;5041982;28;20147;-70
2021/06/28 05:42:33;;;;;;;10.75;9.63;;;20.00;99.90;;;;;;5039690;28;20028;-70
2021/06/28 05:44:59;;;;;;;12.75;11.13;;;20.10;99.90;;;;;;5044685;28;20036;-71
2021/06/28 05:47:29;;;;;;;12.20;10.90;;;20.20;99.90;;;;;;5040406;28;20029;-70
2021/06/28 05:49:55;;;;;;;12.82;11.48;;;20.20;99.90;;;;;;5046658;28;20047;-70
2021/06/28 05:52:23;;;;;;;12.48;10.80;;;20.30;99.90;;;;;;5030828;28;20491;-71
2021/06/28 05:54:48;;;;;;;10.98;9.85;;;20.30;99.90;;;;;;5041148;28;20044;-70
2021/06/28 05:57:22;;;;;;;12.85;10.20;;;20.40;99.90;;;;;;5040514;28;20029;-70
2021/06/28 05:59:50;;;;;;;11.07;9.30;;;20.50;99.90;;;;;;5039561;28;20040;-70
2021/06/28 06:02:15;;;;;;;10.32;9.25;;;20.50;99.90;;;;;;5035232;28;20024;-70
2021/06/28 06:04:43;;;;;;;10.75;9.30;;;20.60;99.90;;;;;;5039635;28;20021;-70
2021/06/28 06:07:11;;;;;;;9.80;8.80;;;20.70;99.90;;;;;;5039253;28;20025;-70
2021/06/28 06:09:37;;;;;;;10.00;8.98;;;20.70;99.90;;;;;;5040719;28;20028;-70
2021/06/28 06:12:06;;;;;;;10.10;9.10;;;20.80;99.90;;;;;;5041145;28;20025;-70
2021/06/28 06:14:32;;;;;;;10.35;9.25;;;20.80;99.90;;;;;;5038506;28;20057;-70
2021/06/28 06:16:57;;;;;;;10.43;9.07;;;20.90;99.90;;;;;;5042499;28;20473;-70
2021/06/28 06:19:23;;;;;;;11.25;10.05;;;20.90;99.90;;;;;;5041074;28;20028;-70
2021/06/28 06:21:49;;;;;;;11.98;10.80;;;20.90;99.90;;;;;;5043017;28;20104;-71
2021/06/28 06:24:17;;;;;;;10.93;9.80;;;20.90;99.90;;;;;;5039576;28;20072;-70
2021/06/28 06:26:42;;;;;;;11.23;10.13;;;20.90;99.90;;;;;;5041363;28;20029;-70
2021/06/28 06:29:13;;;;;;;11.48;10.20;;;20.90;99.90;;;;;;5038208;28;20025;-67
2021/06/28 06:31:40;;;;;;;12.93;10.82;;;21.00;99.90;;;;;;5039857;28;20041;-68
2021/06/28 06:34:06;;;;;;;11.60;10.40;;;21.10;99.90;;;;;;5037893;28;20029;-70
2021/06/28 06:36:39;;;;;;;13.13;11.13;;;21.20;99.90;;;;;;5036594;28;20037;-70
2021/06/28 06:39:04;;;;;;;12.23;10.93;;;21.30;99.90;;;;;;5040856;28;20039;-72
2021/06/28 06:41:30;;;;;;;11.18;10.07;;;21.30;99.90;;;;;;5036484;28;20025;-70
2021/06/28 06:43:56;;;;;;;10.80;9.70;;;21.40;99.90;;;;;;5036472;28;20029;-68
2021/06/28 06:46:23;;;;;;;11.55;10.35;;;21.50;99.90;;;;;;5042588;28;20375;-68
2021/06/28 06:48:51;;;;;;;12.25;10.95;;;21.60;99.90;;;;;;5025405;28;20029;-67
2021/06/28 06:51:18;;;;;;;13.98;12.55;;;21.60;99.90;;;;;;5038752;28;20024;-72
2021/06/28 06:53:44;;;;;;;11.90;10.70;;;21.70;99.90;;;;;;5040201;28;20553;-70
2021/06/28 06:56:09;;;;;;;11.63;10.20;;;21.80;99.90;;;;;;5039643;28;20108;-70
2021/06/28 06:58:35;;;;;;;11.88;9.32;;;21.90;99.90;;;;;;5038194;28;20040;-67
2021/06/28 07:01:04;;;;;;;11.93;10.48;;;22.00;99.90;;;;;;5040208;28;20109;-68
2021/06/28 07:03:29;;;;;;;12.10;10.35;;;22.10;99.90;;;;;;5038609;28;20735;-71
2021/06/28 07:05:55;;;;;;;11.52;10.38;;;22.10;99.90;;;;;;5038210;28;20048;-71
2021/06/28 07:08:23;;;;;;;13.38;12.07;;;22.10;99.90;;;;;;5039076;28;20037;-70
2021/06/28 07:10:51;;;;;;;10.60;9.50;;;22.10;99.90;;;;;;5039490;28;20025;-71
2021/06/28 07:13:17;;;;;;;10.93;9.88;;;22.20;99.90;;;;;;5038248;28;20025;-71
2021/06/28 07:15:43;;;;;;;11.07;9.93;;;22.30;99.90;;;;;;5038420;28;20515;-70
2021/06/28 07:18:11;;;;;;;12.55;11.35;;;22.40;99.90;;;;;;5040968;28;20057;-70
2021/06/28 07:20:37;;;;;;;11.35;10.23;;;22.40;99.90;;;;;;5038053;28;20455;-70
2021/06/28 07:23:03;;;;;;;11.75;10.52;;;22.50;99.90;;;;;;5037440;28;20086;-71
2021/06/28 07:25:28;;;;;;;10.77;9.68;;;22.60;99.90;;;;;;5035537;28;20055;-71
2021/06/28 07:27:57;;;;;;;11.20;9.98;;;22.60;99.90;;;;;;5037399;28;20318;-70
2021/06/28 07:30:23;;;;;;;13.40;10.43;;;22.70;99.90;;;;;;5035955;28;20087;-70
2021/06/28 07:32:50;;;;;;;12.70;10.88;;;22.70;99.90;;;;;;5036941;28;20066;-70
2021/06/28 07:35:16;;;;;;;11.77;10.60;;;22.80;99.90;;;;;;5023143;28;20382;-71
2021/06/28 07:37:42;;;;;;;12.10;10.90;;;23.00;99.90;;;;;;5037597;28;20035;-71
2021/06/28 07:40:12;;;;;;;13.10;11.80;;;23.00;99.90;;;;;;5037700;28;20402;-71
2021/06/28 07:42:42;;;;;;;11.95;10.68;;;23.10;99.90;;;;;;5039349;28;20219;-67
2021/06/28 07:45:10;;;;;;;23.55;20.60;;;23.50;99.90;;;;;;5037563;28;20048;-68
2021/06/28 07:47:36;;;;;;;13.95;12.07;;;23.60;99.90;;;;;;5040472;28;20036;-68
2021/06/28 07:50:04;;;;;;;13.13;10.73;;;23.70;99.90;;;;;;5037434;28;20029;-71
2021/06/28 07:52:31;;;;;;;12.65;10.98;;;23.90;99.90;;;;;;5038415;28;20094;-71
2021/06/28 07:55:00;;;;;;;10.23;8.77;;;24.00;99.90;;;;;;5037270;28;20063;-71
2021/06/28 07:57:28;;;;;;;10.68;9.20;;;24.10;99.90;;;;;;5038605;28;20122;-71
2021/06/28 07:59:58;;;;;;;9.98;8.52;;;24.10;99.90;;;;;;5040209;28;20064;-71
2021/06/28 08:02:24;;;;;;;10.18;9.15;;;24.30;99.90;;;;;;5036883;28;20045;-72
2021/06/28 08:04:52;;;;;;;11.13;8.43;;;24.40;99.90;;;;;;5034960;28;20513;-70
2021/06/28 08:07:19;;;;;;;10.18;8.40;;;24.50;99.90;;;;;;5036617;28;20029;-71
2021/06/28 08:09:49;;;;;;;8.65;7.80;;;24.60;99.90;;;;;;5038282;28;20029;-71
2021/06/28 08:12:15;;;;;;;9.65;8.63;;;24.80;99.90;;;;;;5037959;28;20030;-73
2021/06/28 08:14:40;;;;;;;9.02;8.13;;;24.80;99.90;;;;;;5039807;28;20143;-73
2021/06/28 08:17:08;;;;;;;10.52;9.43;;;25.00;99.90;;;;;;5040152;28;20029;-73
2021/06/28 08:19:34;;;;;;;9.13;8.23;;;25.00;99.90;;;;;;5042289;28;20021;-73
2021/06/28 08:22:00;;;;;;;9.20;8.20;;;25.10;99.90;;;;;;5043036;28;20017;-73
2021/06/28 08:24:25;;;;;;;8.35;7.45;;;25.30;99.90;;;;;;5043359;28;20132;-73
2021/06/28 08:26:52;;;;;;;8.02;7.22;;;25.40;99.90;;;;;;5027645;28;20029;-73
2021/06/28 08:29:19;;;;;;;8.13;6.75;;;25.40;99.90;;;;;;5041169;28;20033;-73
2021/06/28 08:31:45;;;;;;;7.50;6.53;;;25.60;99.90;;;;;;5040982;28;20079;-73
2021/06/28 08:34:15;;;;;;;7.85;6.85;;;25.80;99.90;;;;;;5041616;28;20060;-73
2021/06/28 08:36:44;;;;;;;9.00;7.88;;;25.90;99.90;;;;;;5041706;28;20034;-70
2021/06/28 08:39:09;;;;;;;9.02;7.72;;;26.10;99.90;;;;;;5040775;28;20025;-71
2021/06/28 08:41:35;;;;;;;11.00;7.90;;;26.10;99.90;;;;;;5042328;28;20025;-71
2021/06/28 08:44:01;;;;;;;8.30;7.20;;;26.20;99.90;;;;;;5041949;28;20029;-70
2021/06/28 08:46:26;;;;;;;9.55;8.55;;;26.30;99.90;;;;;;5043583;28;20116;-71
2021/06/28 08:48:53;;;;;;;8.77;7.88;;;26.30;96.50;;;;;;5030960;28;20025;-71
2021/06/28 08:51:21;;;;;;;8.73;7.03;;;26.30;95.80;;;;;;5024452;28;20421;-71
2021/06/28 08:53:54;;;;;;;7.68;6.88;;;26.40;98.70;;;;;;5042658;28;20030;-71
2021/06/28 08:56:24;;;;;;;8.30;6.78;;;26.40;99.70;;;;;;5040608;28;20033;-72
2021/06/28 08:58:50;;;;;;;7.93;6.70;;;26.50;99.90;;;;;;5041459;28;20048;-72
2021/06/28 09:01:17;;;;;;;7.82;6.40;;;26.60;99.60;;;;;;5042420;28;20468;-72
2021/06/28 09:03:45;;;;;;;7.38;6.10;;;26.20;91.10;;;;;;5040188;28;20438;-72
2021/06/28 09:06:11;;;;;;;7.03;5.82;;;26.20;91.90;;;;;;5043573;28;20034;-72
2021/06/28 09:08:37;;;;;;;7.53;5.93;;;26.10;96.30;;;;;;5042310;28;20577;-72
2021/06/28 09:11:05;;;;;;;7.43;6.15;;;26.20;99.30;;;;;;5040056;28;20067;-72
2021/06/28 09:13:41;;;;;;;7.95;6.25;;;26.20;94.60;;;;;;5041207;28;20047;-68
2021/06/28 09:16:12;;;;;;;7.00;6.00;;;26.20;99.90;;;;;;5035927;28;20033;-68
2021/06/28 09:18:51;;;;;;;9.67;7.77;;;26.10;91.70;;;;;;5055141;28;20139;-72
2021/06/28 09:21:21;;;;;;;6.78;5.70;;;26.20;95.70;;;;;;5038253;28;20059;-71
2021/06/28 09:23:47;;;;;;;6.57;5.50;;;26.20;92.00;;;;;;5038739;28;20048;-72
2021/06/28 09:26:14;;;;;;;6.45;5.53;;;26.20;92.40;;;;;;5042100;28;20060;-72
2021/06/28 09:28:44;;;;;;;7.05;5.60;;;26.30;95.30;;;;;;5037838;28;20021;-72
2021/06/28 09:31:38;;;;;;;;;;;26.40;97.60;;;;;;5043522;28;20053;-72
2021/06/28 09:34:07;;;;;;;6.15;4.57;;;26.50;99.80;;;;;;5041119;28;20296;-73
2021/06/28 09:36:51;;;;;;;5.95;4.63;;;26.50;85.10;;;;;;5041839;28;20032;-72
2021/06/28 09:39:23;;;;;;;7.10;5.45;;;26.40;82.70;;;;;;5042219;28;20512;-72
2021/06/28 09:41:49;;;;;;;6.22;4.50;;;26.40;90.30;;;;;;5041855;28;20048;-72
2021/06/28 09:44:17;;;;;;;6.00;4.40;;;26.30;88.70;;;;;;5039729;28;20758;-72
2021/06/28 09:46:42;;;;;;;6.30;4.80;;;26.40;91.90;;;;;;5042475;28;20036;-72
2021/06/28 09:49:14;;;;;;;6.38;4.47;;;26.50;95.20;;;;;;5058777;28;20033;-72
2021/06/28 09:51:40;;;;;;;5.88;4.75;;;26.40;83.20;;;;;;5045330;28;20028;-72
2021/06/28 09:54:06;;;;;;;7.25;4.40;;;26.60;94.70;;;;;;5040840;28;20029;-72
2021/06/28 09:56:38;;;;;;;6.22;4.80;;;26.70;93.80;;;;;;5040106;28;20028;-72
2021/06/28 09:59:23;;;;;;;6.75;4.90;;;26.70;94.90;;;;;;5028396;28;20350;-72
2021/06/28 10:02:19;;;;;;;7.60;5.03;;;26.80;86.50;;;;;;5042252;28;20021;-72
2021/06/28 10:04:59;;;;;;;5.55;4.43;;;26.80;81.40;;;;;;5039606;28;20025;-73
2021/06/28 10:07:32;;;;;;;5.43;4.47;;;26.60;80.60;;;;;;5041229;28;20036;-73
2021/06/28 10:10:26;;;;;;;5.80;4.72;;;26.50;82.60;;;;;;5042209;28;20089;-72
2021/06/28 10:12:52;;;;;;;6.22;5.10;;;26.20;79.10;;;;;;5040625;28;20045;-72
2021/06/28 10:15:24;;;;;;;6.43;4.75;;;26.00;82.70;;;;;;5041753;28;20090;-73
2021/06/28 10:17:49;;;;;;;7.43;4.68;;;26.00;87.90;;;;;;5042388;28;20146;-73
2021/06/28 10:20:22;;;;;;;6.13;4.57;;;26.00;90.30;;;;;;5045528;28;20101;-73
2021/06/28 10:22:51;;;;;;;6.47;4.55;;;26.00;94.40;;;;;;5038790;28;20032;-72
2021/06/28 10:25:18;;;;;;;6.05;5.30;;;26.10;93.00;;;;;;5040504;28;20056;-73
2021/06/28 10:27:47;;;;;;;6.80;5.20;;;26.00;92.00;;;;;;5038704;28;20393;-68
2021/06/28 10:30:14;;;;;;;6.60;5.43;;;26.10;95.30;;;;;;5040932;28;20735;-68
2021/06/28 10:32:46;;;;;;;6.60;5.30;;;26.00;91.30;;;;;;5037689;28;20633;-68
2021/06/28 10:35:13;;;;;;;7.10;5.57;;;26.00;88.20;;;;;;5037757;28;20029;-73
2021/06/28 10:37:42;;;;;;;7.22;5.80;;;26.10;89.00;;;;;;5036254;28;20524;-73
2021/06/28 10:40:14;;;;;;;8.50;5.68;;;26.20;96.20;;;;;;5037597;28;20043;-73
2021/06/28 10:42:41;;;;;;;7.75;5.35;;;26.20;89.70;;;;;;5037482;28;20038;-73
2021/06/28 10:45:10;;;;;;;8.65;5.53;;;26.20;92.70;;;;;;5040376;28;20028;-74
2021/06/28 10:47:38;;;;;;;7.03;5.20;;;26.30;90.10;;;;;;5038356;28;20032;-73
2021/06/28 10:50:05;;;;;;;6.53;4.55;;;26.30;92.90;;;;;;5040565;28;20033;-73
2021/06/28 10:52:37;;;;;;;7.63;5.10;;;26.20;88.60;;;;;;5039319;28;20669;-73
2021/06/28 10:55:20;;;;;;;;;;;26.40;96.30;;;;;;5039366;28;20075;-73
2021/06/28 10:57:47;;;;;;;6.00;4.45;;;26.40;91.40;;;;;;5040200;28;19975;-73
2021/06/28 11:00:13;;;;;;;7.40;4.70;;;26.50;97.30;;;;;;5037391;28;20053;-73
2021/06/28 11:02:42;;;;;;;6.47;5.22;;;26.50;98.30;;;;;;5061102;28;20106;-73
2021/06/28 11:05:09;;;;;;;7.00;5.30;;;26.60;92.60;;;;;;5035752;28;20454;-73
2021/06/28 11:07:42;;;;;;;5.60;4.68;;;26.60;95.80;;;;;;5036500;28;20667;-72
2021/06/28 11:10:12;;;;;;;6.43;5.10;;;26.60;96.60;;;;;;5040592;28;20041;-73
2021/06/28 11:12:38;;;;;;;6.63;5.30;;;26.60;97.60;;;;;;5035682;28;20052;-72
2021/06/28 11:15:25;;;;;;;8.15;5.55;;;26.70;99.90;;;;;;5037952;28;20493;-73
2021/06/28 11:17:54;;;;;;;6.88;5.07;;;26.60;90.70;;;;;;5020243;28;20083;-72
2021/06/28 11:20:24;;;;;;;7.28;5.38;;;26.60;96.90;;;;;;5036232;28;20064;-73
2021/06/28 11:22:54;;;;;;;9.10;5.13;;;26.60;95.90;;;;;;5038936;28;20032;-73
2021/06/28 11:25:45;;;;;;;7.75;5.30;;;26.60;96.40;;;;;;5042227;28;20060;-72
2021/06/28 11:28:12;;;;;;;6.35;5.28;;;26.60;93.90;;;;;;5041605;28;20116;-68
2021/06/28 11:30:46;;;;;;;7.57;5.20;;;26.60;97.30;;;;;;5039339;28;20497;-68
2021/06/28 11:33:14;;;;;;;6.68;5.82;;;26.60;97.30;;;;;;5036579;28;20057;-73
2021/06/28 11:35:50;;;;;;;6.10;5.00;;;26.60;96.40;;;;;;5037577;28;20535;-73
2021/06/28 11:38:29;;;;;;;6.47;5.28;;;26.50;97.00;;;;;;5042712;28;20045;-73
2021/06/28 11:40:59;;;;;;;6.88;5.57;;;26.70;99.90;;;;;;5039134;28;20108;-73
2021/06/28 11:43:39;;;;;;;7.55;6.35;;;26.90;99.40;;;;;;5039847;28;20029;-72
2021/06/28 11:46:25;;;;;;;7.68;6.07;;;27.00;93.30;;;;;;5036422;28;20477;-73
2021/06/28 11:48:57;;;;;;;7.32;5.70;;;27.20;96.90;;;;;;5039190;28;20043;-73
2021/06/28 11:51:27;;;;;;;6.60;5.90;;;27.30;99.70;;;;;;5036569;28;20142;-73
2021/06/28 11:54:04;;;;;;;6.13;5.30;;;27.40;96.70;;;;;;5043122;28;20064;-72
2021/06/28 11:56:32;;;;;;;6.80;5.50;;;27.40;95.50;;;;;;5040702;28;20032;-73
2021/06/28 11:59:02;;;;;;;5.80;5.00;;;27.40;96.70;;;;;;5041324;28;20030;-73
2021/06/28 12:01:33;;;;;;;7.05;5.20;;;27.50;88.30;;;;;;5038799;28;20024;-68
2021/06/28 12:04:02;;;;;;;7.95;5.97;;;27.50;88.60;;;;;;5036390;28;20063;-68
2021/06/28 12:06:37;;;;;;;8.15;4.60;;;27.80;94.90;;;;;;5039774;28;20037;-73
2021/06/28 12:09:18;;;;;;;5.85;4.40;;;27.80;78.80;;;;;;5020985;28;20028;-73
2021/06/28 12:12:07;;;;;;;5.77;4.10;;;27.60;71.20;;;;;;5038067;28;20025;-73
2021/06/28 12:14:46;;;;;;;5.72;4.68;;;27.70;83.10;;;;;;5041655;28;20025;-73
2021/06/28 12:17:27;;;;;;;6.97;4.70;;;27.80;88.60;;;;;;5039149;28;20360;-73
2021/06/28 12:19:59;;;;;;;6.05;4.25;;;27.90;91.50;;;;;;5038875;28;20025;-72
2021/06/28 12:22:27;;;;;;;5.50;4.30;;;28.10;76.10;;;;;;5028138;28;20095;-73
2021/06/28 12:25:09;;;;;;;7.32;4.20;;;28.10;78.40;;;;;;5035913;28;20060;-73
2021/06/28 12:27:38;;;;;;;4.90;4.18;;;28.20;91.20;;;;;;5034696;28;20021;-73
2021/06/28 12:30:10;;;;;;;9.43;4.72;;;28.20;92.60;;;;;;5038223;28;20173;-72
2021/06/28 12:32:41;;;;;;;5.47;4.10;;;28.10;90.00;;;;;;5040619;28;20112;-73
2021/06/28 12:35:11;;;;;;;6.05;4.32;;;28.30;84.80;;;;;;5027135;28;20133;-73
2021/06/28 12:37:41;;;;;;;7.07;4.53;;;28.40;87.60;;;;;;5038379;28;20028;-73
2021/06/28 12:40:16;;;;;;;7.07;4.40;;;28.40;92.20;;;;;;5040121;28;20064;-72
2021/06/28 12:42:53;;;;;;;5.80;4.40;;;28.50;79.90;;;;;;5040664;28;20128;-73
2021/06/28 12:45:32;;;;;;;6.78;4.50;;;28.10;77.00;;;;;;5037720;28;20040;-73
2021/06/28 12:47:59;;;;;;;6.07;4.05;;;28.20;83.90;;;;;;5025007;28;20087;-68
2021/06/28 12:50:29;;;;;;;5.88;4.32;;;28.30;88.70;;;;;;5039023;28;20109;-68